sensor_id;sensor_type;location;lat;lon;timestamp;P1;durP1;ratioP1;P2;durP2;ratioP2
19861;SDS011;10093;48.148;8.542;2022-11-12T00:00:24;17.50;;;10.15;;
19861;SDS011;10093;48.148;8.542;2022-11-12T00:02:50;16.27;;;10.45;;
19861;SDS011;10093;48.148;8.542;2022-11-12T00:05:15;19.25;;;9.80;;
19861;SDS011;10093;48.148;8.542;2022-11-12T00:07:41;19.58;;;10.30;;
19861;SDS011;10093;48.148;8.542;2022-11-12T00:10:07;20.48;;;9.60;;
19861;SDS011;10093;48.148;8.542;2022-11-12T00:12:33;18.67;;;10.30;;
19861;SDS011;10093;48.148;8.542;2022-11-12T00:14:58;18.73;;;10.10;;
19861;SDS011;10093;48.148;8.542;2022-11-12T00:17:24;17.27;;;9.57;;
19861;SDS011;10093;48.148;8.542;2022-11-12T00:19:49;21.55;;;11.25;;
19861;SDS011;10093;48.148;8.542;2022-11-12T00:22:15;19.58;;;10.88;;
19861;SDS011;10093;48.148;8.542;2022-11-12T00:24:41;16.13;;;10.07;;
19861;SDS011;10093;48.148;8.542;2022-11-12T00:27:06;18.90;;;10.85;;
19861;SDS011;10093;48.148;8.542;2022-11-12T00:29:32;18.45;;;10.75;;
19861;SDS011;10093;48.148;8.542;2022-11-12T00:31:58;15.63;;;9.88;;
19861;SDS011;10093;48.148;8.542;2022-11-12T00:34:23;14.18;;;9.00;;
19861;SDS011;10093;48.148;8.542;2022-11-12T00:36:49;14.35;;;9.38;;
19861;SDS011;10093;48.148;8.542;2022-11-12T00:39:14;13.68;;;9.05;;
19861;SDS011;10093;48.148;8.542;2022-11-12T00:41:40;15.23;;;9.68;;
19861;SDS011;10093;48.148;8.542;2022-11-12T00:44:05;16.92;;;9.05;;
19861;SDS011;10093;48.148;8.542;2022-11-12T00:46:31;16.83;;;9.93;;
19861;SDS011;10093;48.148;8.542;2022-11-12T00:48:56;15.90;;;10.02;;
19861;SDS011;10093;48.148;8.542;2022-11-12T00:51:22;15.32;;;9.20;;
19861;SDS011;10093;48.148;8.542;2022-11-12T00:53:48;14.13;;;8.88;;
19861;SDS011;10093;48.148;8.542;2022-11-12T00:56:14;18.30;;;9.25;;
19861;SDS011;10093;48.148;8.542;2022-11-12T00:58:40;13.80;;;8.65;;
19861;SDS011;10093;48.148;8.542;2022-11-12T01:01:09;13.20;;;8.75;;
19861;SDS011;10093;48.148;8.542;2022-11-12T01:03:37;13.77;;;8.27;;
19861;SDS011;10093;48.148;8.542;2022-11-12T01:06:04;14.02;;;8.38;;
19861;SDS011;10093;48.148;8.542;2022-11-12T01:08:31;12.95;;;8.32;;
19861;SDS011;10093;48.148;8.542;2022-11-12T01:11:03;9.63;;;6.95;;
19861;SDS011;10093;48.148;8.542;2022-11-12T01:16:17;9.85;;;6.82;;
19861;SDS011;10093;48.148;8.542;2022-11-12T01:21:11;12.23;;;7.32;;
19861;SDS011;10093;48.148;8.542;2022-11-12T01:23:37;11.90;;;7.70;;
19861;SDS011;10093;48.148;8.542;2022-11-12T01:26:07;13.07;;;7.22;;
19861;SDS011;10093;48.148;8.542;2022-11-12T01:28:38;12.10;;;7.97;;
19861;SDS011;10093;48.148;8.542;2022-11-12T01:31:11;12.60;;;7.43;;
19861;SDS011;10093;48.148;8.542;2022-11-12T01:33:43;10.95;;;7.25;;
19861;SDS011;10093;48.148;8.542;2022-11-12T01:36:10;10.90;;;6.53;;
19861;SDS011;10093;48.148;8.542;2022-11-12T01:38:37;8.38;;;6.00;;
19861;SDS011;10093;48.148;8.542;2022-11-12T01:41:04;7.70;;;5.47;;
19861;SDS011;10093;48.148;8.542;2022-11-12T01:43:31;8.15;;;5.93;;
19861;SDS011;10093;48.148;8.542;2022-11-12T01:45:56;6.72;;;4.95;;
19861;SDS011;10093;48.148;8.542;2022-11-12T01:48:26;8.27;;;5.85;;
19861;SDS011;10093;48.148;8.542;2022-11-12T01:50:54;10.13;;;5.53;;
19861;SDS011;10093;48.148;8.542;2022-11-12T01:53:22;9.32;;;5.75;;
19861;SDS011;10093;48.148;8.542;2022-11-12T01:55:50;8.82;;;5.85;;
19861;SDS011;10093;48.148;8.542;2022-11-12T01:58:17;8.35;;;5.72;;
19861;SDS011;10093;48.148;8.542;2022-11-12T02:00:45;9.43;;;5.68;;
19861;SDS011;10093;48.148;8.542;2022-11-12T02:03:12;10.60;;;6.60;;
19861;SDS011;10093;48.148;8.542;2022-11-12T02:05:42;10.15;;;6.40;;
19861;SDS011;10093;48.148;8.542;2022-11-12T02:08:12;10.48;;;5.57;;
19861;SDS011;10093;48.148;8.542;2022-11-12T02:10:38;9.18;;;5.85;;
19861;SDS011;10093;48.148;8.542;2022-11-12T02:13:04;9.98;;;6.10;;
19861;SDS011;10093;48.148;8.542;2022-11-12T02:15:49;9.43;;;6.00;;
19861;SDS011;10093;48.148;8.542;2022-11-12T02:18:15;8.05;;;5.53;;
19861;SDS011;10093;48.148;8.542;2022-11-12T02:20:41;8.95;;;5.80;;
19861;SDS011;10093;48.148;8.542;2022-11-12T02:23:07;8.73;;;6.00;;
19861;SDS011;10093;48.148;8.542;2022-11-12T02:25:33;9.27;;;5.63;;
19861;SDS011;10093;48.148;8.542;2022-11-12T02:27:59;7.45;;;5.57;;
19861;SDS011;10093;48.148;8.542;2022-11-12T02:30:32;7.90;;;5.30;;
19861;SDS011;10093;48.148;8.542;2022-11-12T02:33:06;9.45;;;5.32;;
19861;SDS011;10093;48.148;8.542;2022-11-12T02:35:31;6.60;;;4.80;;
19861;SDS011;10093;48.148;8.542;2022-11-12T02:37:57;5.63;;;4.47;;
19861;SDS011;10093;48.148;8.542;2022-11-12T02:40:23;5.65;;;4.75;;
19861;SDS011;10093;48.148;8.542;2022-11-12T02:42:49;5.35;;;4.18;;
19861;SDS011;10093;48.148;8.542;2022-11-12T02:45:14;5.85;;;4.20;;
19861;SDS011;10093;48.148;8.542;2022-11-12T02:47:40;6.22;;;4.32;;
19861;SDS011;10093;48.148;8.542;2022-11-12T02:50:06;4.88;;;4.05;;
19861;SDS011;10093;48.148;8.542;2022-11-12T02:52:33;5.63;;;4.35;;
19861;SDS011;10093;48.148;8.542;2022-11-12T02:54:59;6.18;;;4.40;;
19861;SDS011;10093;48.148;8.542;2022-11-12T02:57:24;6.40;;;4.70;;
19861;SDS011;10093;48.148;8.542;2022-11-12T02:59:50;6.85;;;4.68;;
19861;SDS011;10093;48.148;8.542;2022-11-12T03:02:16;5.57;;;4.47;;
19861;SDS011;10093;48.148;8.542;2022-11-12T03:04:41;5.57;;;4.22;;
19861;SDS011;10093;48.148;8.542;2022-11-12T03:07:07;4.97;;;3.95;;
19861;SDS011;10093;48.148;8.542;2022-11-12T03:09:33;4.85;;;4.03;;
19861;SDS011;10093;48.148;8.542;2022-11-12T03:11:58;7.07;;;4.20;;
19861;SDS011;10093;48.148;8.542;2022-11-12T03:14:24;5.78;;;4.28;;
19861;SDS011;10093;48.148;8.542;2022-11-12T03:16:50;7.00;;;4.30;;
19861;SDS011;10093;48.148;8.542;2022-11-12T03:19:15;6.15;;;4.22;;
19861;SDS011;10093;48.148;8.542;2022-11-12T03:21:41;5.68;;;4.55;;
19861;SDS011;10093;48.148;8.542;2022-11-12T03:24:07;7.07;;;4.50;;
19861;SDS011;10093;48.148;8.542;2022-11-12T03:26:32;6.20;;;4.82;;
19861;SDS011;10093;48.148;8.542;2022-11-12T03:28:58;5.72;;;4.15;;
19861;SDS011;10093;48.148;8.542;2022-11-12T03:31:23;7.30;;;4.43;;
19861;SDS011;10093;48.148;8.542;2022-11-12T03:33:49;5.07;;;3.92;;
19861;SDS011;10093;48.148;8.542;2022-11-12T03:36:15;5.25;;;3.83;;
19861;SDS011;10093;48.148;8.542;2022-11-12T03:38:40;5.43;;;3.85;;
19861;SDS011;10093;48.148;8.542;2022-11-12T03:41:06;6.22;;;4.45;;
19861;SDS011;10093;48.148;8.542;2022-11-12T03:43:31;6.80;;;4.53;;
19861;SDS011;10093;48.148;8.542;2022-11-12T03:45:57;6.65;;;4.45;;
19861;SDS011;10093;48.148;8.542;2022-11-12T03:48:23;6.28;;;4.10;;
19861;SDS011;10093;48.148;8.542;2022-11-12T03:50:48;5.75;;;3.70;;
19861;SDS011;10093;48.148;8.542;2022-11-12T03:53:14;5.65;;;4.05;;
19861;SDS011;10093;48.148;8.542;2022-11-12T03:55:40;5.65;;;3.92;;
19861;SDS011;10093;48.148;8.542;2022-11-12T03:58:05;6.93;;;4.43;;
19861;SDS011;10093;48.148;8.542;2022-11-12T04:00:31;5.47;;;4.20;;
19861;SDS011;10093;48.148;8.542;2022-11-12T04:02:57;4.78;;;3.80;;
19861;SDS011;10093;48.148;8.542;2022-11-12T04:05:24;5.00;;;4.07;;
19861;SDS011;10093;48.148;8.542;2022-11-12T04:10:57;6.22;;;4.35;;
19861;SDS011;10093;48.148;8.542;2022-11-12T04:13:23;6.57;;;4.18;;
19861;SDS011;10093;48.148;8.542;2022-11-12T04:18:47;6.38;;;4.35;;
19861;SDS011;10093;48.148;8.542;2022-11-12T04:21:35;6.47;;;4.50;;
19861;SDS011;10093;48.148;8.542;2022-11-12T04:27:24;6.63;;;4.80;;
19861;SDS011;10093;48.148;8.542;2022-11-12T04:29:51;6.85;;;4.72;;
19861;SDS011;10093;48.148;8.542;2022-11-12T04:32:37;8.90;;;5.90;;
19861;SDS011;10093;48.148;8.542;2022-11-12T04:35:05;6.60;;;4.85;;
19861;SDS011;10093;48.148;8.542;2022-11-12T04:37:33;7.22;;;4.72;;
19861;SDS011;10093;48.148;8.542;2022-11-12T04:40:19;7.25;;;4.65;;
19861;SDS011;10093;48.148;8.542;2022-11-12T04:43:09;6.40;;;4.70;;
19861;SDS011;10093;48.148;8.542;2022-11-12T04:45:58;8.52;;;5.20;;
19861;SDS011;10093;48.148;8.542;2022-11-12T04:48:25;8.93;;;6.20;;
19861;SDS011;10093;48.148;8.542;2022-11-12T04:50:58;8.63;;;5.45;;
19861;SDS011;10093;48.148;8.542;2022-11-12T04:53:25;9.98;;;5.55;;
19861;SDS011;10093;48.148;8.542;2022-11-12T04:55:52;9.43;;;5.97;;
19861;SDS011;10093;48.148;8.542;2022-11-12T04:58:19;9.95;;;6.63;;
19861;SDS011;10093;48.148;8.542;2022-11-12T05:00:45;10.35;;;6.10;;
19861;SDS011;10093;48.148;8.542;2022-11-12T05:03:12;12.52;;;6.47;;
19861;SDS011;10093;48.148;8.542;2022-11-12T05:05:37;11.32;;;6.82;;
19861;SDS011;10093;48.148;8.542;2022-11-12T05:08:03;11.18;;;6.80;;
19861;SDS011;10093;48.148;8.542;2022-11-12T05:10:29;9.82;;;5.38;;
19861;SDS011;10093;48.148;8.542;2022-11-12T05:12:55;7.70;;;5.43;;
19861;SDS011;10093;48.148;8.542;2022-11-12T05:15:21;10.70;;;6.18;;
19861;SDS011;10093;48.148;8.542;2022-11-12T05:17:47;12.27;;;6.78;;
19861;SDS011;10093;48.148;8.542;2022-11-12T05:20:13;8.07;;;5.65;;
19861;SDS011;10093;48.148;8.542;2022-11-12T05:22:39;6.63;;;5.00;;
19861;SDS011;10093;48.148;8.542;2022-11-12T05:25:05;8.52;;;6.15;;
19861;SDS011;10093;48.148;8.542;2022-11-12T05:27:31;7.90;;;5.35;;
19861;SDS011;10093;48.148;8.542;2022-11-12T05:29:57;8.02;;;5.53;;
19861;SDS011;10093;48.148;8.542;2022-11-12T05:32:23;8.25;;;5.22;;
19861;SDS011;10093;48.148;8.542;2022-11-12T05:34:49;9.10;;;5.80;;
19861;SDS011;10093;48.148;8.542;2022-11-12T05:37:14;8.70;;;5.75;;
19861;SDS011;10093;48.148;8.542;2022-11-12T05:39:40;9.02;;;6.15;;
19861;SDS011;10093;48.148;8.542;2022-11-12T05:42:06;8.98;;;5.53;;
19861;SDS011;10093;48.148;8.542;2022-11-12T05:44:32;10.50;;;5.88;;
19861;SDS011;10093;48.148;8.542;2022-11-12T05:46:58;13.90;;;7.05;;
19861;SDS011;10093;48.148;8.542;2022-11-12T05:49:23;15.88;;;7.32;;
19861;SDS011;10093;48.148;8.542;2022-11-12T05:51:49;22.05;;;8.90;;
19861;SDS011;10093;48.148;8.542;2022-11-12T05:54:15;18.05;;;8.93;;
19861;SDS011;10093;48.148;8.542;2022-11-12T05:56:41;20.42;;;9.43;;
19861;SDS011;10093;48.148;8.542;2022-11-12T05:59:08;14.40;;;7.75;;
19861;SDS011;10093;48.148;8.542;2022-11-12T06:01:35;15.18;;;7.57;;
19861;SDS011;10093;48.148;8.542;2022-11-12T06:04:08;21.52;;;10.10;;
19861;SDS011;10093;48.148;8.542;2022-11-12T06:06:35;18.10;;;9.45;;
19861;SDS011;10093;48.148;8.542;2022-11-12T06:09:02;21.27;;;8.63;;
19861;SDS011;10093;48.148;8.542;2022-11-12T06:11:28;18.98;;;9.52;;
19861;SDS011;10093;48.148;8.542;2022-11-12T06:13:54;53.85;;;7.60;;
19861;SDS011;10093;48.148;8.542;2022-11-12T06:16:19;14.25;;;7.65;;
19861;SDS011;10093;48.148;8.542;2022-11-12T06:18:45;17.38;;;8.48;;
19861;SDS011;10093;48.148;8.542;2022-11-12T06:21:11;16.45;;;8.48;;
19861;SDS011;10093;48.148;8.542;2022-11-12T06:23:51;16.35;;;8.80;;
19861;SDS011;10093;48.148;8.542;2022-11-12T06:26:21;22.48;;;9.77;;
19861;SDS011;10093;48.148;8.542;2022-11-12T06:28:49;22.63;;;10.05;;
19861;SDS011;10093;48.148;8.542;2022-11-12T06:31:15;26.13;;;10.65;;
19861;SDS011;10093;48.148;8.542;2022-11-12T06:33:42;23.08;;;10.35;;
19861;SDS011;10093;48.148;8.542;2022-11-12T06:36:09;21.80;;;9.73;;
19861;SDS011;10093;48.148;8.542;2022-11-12T06:38:36;19.48;;;9.82;;
19861;SDS011;10093;48.148;8.542;2022-11-12T06:41:04;21.52;;;10.23;;
19861;SDS011;10093;48.148;8.542;2022-11-12T06:43:30;24.60;;;11.23;;
19861;SDS011;10093;48.148;8.542;2022-11-12T06:45:57;24.35;;;11.30;;
19861;SDS011;10093;48.148;8.542;2022-11-12T06:48:27;20.92;;;10.57;;
19861;SDS011;10093;48.148;8.542;2022-11-12T06:50:54;23.35;;;11.05;;
19861;SDS011;10093;48.148;8.542;2022-11-12T06:53:20;26.83;;;11.77;;
19861;SDS011;10093;48.148;8.542;2022-11-12T06:55:46;27.30;;;11.73;;
19861;SDS011;10093;48.148;8.542;2022-11-12T06:58:11;25.75;;;11.13;;
19861;SDS011;10093;48.148;8.542;2022-11-12T07:00:37;26.40;;;10.88;;
19861;SDS011;10093;48.148;8.542;2022-11-12T07:03:06;24.92;;;11.35;;
19861;SDS011;10093;48.148;8.542;2022-11-12T07:05:36;24.48;;;10.80;;
19861;SDS011;10093;48.148;8.542;2022-11-12T07:08:02;28.23;;;11.45;;
19861;SDS011;10093;48.148;8.542;2022-11-12T07:10:28;23.98;;;10.48;;
19861;SDS011;10093;48.148;8.542;2022-11-12T07:12:54;25.10;;;11.75;;
19861;SDS011;10093;48.148;8.542;2022-11-12T07:15:20;28.25;;;12.52;;
19861;SDS011;10093;48.148;8.542;2022-11-12T07:17:45;25.60;;;11.88;;
19861;SDS011;10093;48.148;8.542;2022-11-12T07:20:11;25.15;;;11.85;;
19861;SDS011;10093;48.148;8.542;2022-11-12T07:22:37;23.48;;;11.25;;
19861;SDS011;10093;48.148;8.542;2022-11-12T07:25:03;21.65;;;10.70;;
19861;SDS011;10093;48.148;8.542;2022-11-12T07:27:29;20.40;;;10.55;;
19861;SDS011;10093;48.148;8.542;2022-11-12T07:29:55;19.05;;;10.48;;
19861;SDS011;10093;48.148;8.542;2022-11-12T07:32:21;18.10;;;9.93;;
19861;SDS011;10093;48.148;8.542;2022-11-12T07:34:46;16.52;;;8.82;;
19861;SDS011;10093;48.148;8.542;2022-11-12T07:37:12;19.20;;;9.45;;
19861;SDS011;10093;48.148;8.542;2022-11-12T07:39:37;15.95;;;8.80;;
19861;SDS011;10093;48.148;8.542;2022-11-12T07:42:03;13.13;;;7.95;;
19861;SDS011;10093;48.148;8.542;2022-11-12T07:44:29;14.82;;;8.73;;
19861;SDS011;10093;48.148;8.542;2022-11-12T07:46:54;16.42;;;8.90;;
19861;SDS011;10093;48.148;8.542;2022-11-12T07:49:20;11.93;;;7.07;;
19861;SDS011;10093;48.148;8.542;2022-11-12T07:51:45;12.32;;;7.80;;
19861;SDS011;10093;48.148;8.542;2022-11-12T07:54:11;19.90;;;12.77;;
19861;SDS011;10093;48.148;8.542;2022-11-12T07:56:37;13.93;;;9.15;;
19861;SDS011;10093;48.148;8.542;2022-11-12T07:59:03;49.42;;;30.25;;
19861;SDS011;10093;48.148;8.542;2022-11-12T08:01:35;36.42;;;23.80;;
19861;SDS011;10093;48.148;8.542;2022-11-12T08:04:04;11.55;;;7.65;;
19861;SDS011;10093;48.148;8.542;2022-11-12T08:06:32;43.45;;;36.92;;
19861;SDS011;10093;48.148;8.542;2022-11-12T08:08:59;13.55;;;8.68;;
19861;SDS011;10093;48.148;8.542;2022-11-12T08:11:25;10.23;;;6.55;;
19861;SDS011;10093;48.148;8.542;2022-11-12T08:13:51;8.85;;;5.88;;
19861;SDS011;10093;48.148;8.542;2022-11-12T08:16:17;17.85;;;14.15;;
19861;SDS011;10093;48.148;8.542;2022-11-12T08:18:43;27.55;;;18.67;;
19861;SDS011;10093;48.148;8.542;2022-11-12T08:21:10;33.60;;;24.45;;
19861;SDS011;10093;48.148;8.542;2022-11-12T08:23:38;40.92;;;27.73;;
19861;SDS011;10093;48.148;8.542;2022-11-12T08:26:06;10.27;;;6.78;;
19861;SDS011;10093;48.148;8.542;2022-11-12T08:28:35;10.80;;;6.53;;
19861;SDS011;10093;48.148;8.542;2022-11-12T08:31:07;22.38;;;13.60;;
19861;SDS011;10093;48.148;8.542;2022-11-12T08:33:40;8.10;;;5.10;;
19861;SDS011;10093;48.148;8.542;2022-11-12T08:36:07;13.52;;;10.02;;
19861;SDS011;10093;48.148;8.542;2022-11-12T08:38:35;7.03;;;5.45;;
19861;SDS011;10093;48.148;8.542;2022-11-12T08:41:02;16.13;;;12.02;;
19861;SDS011;10093;48.148;8.542;2022-11-12T08:43:29;7.47;;;5.85;;
19861;SDS011;10093;48.148;8.542;2022-11-12T08:45:58;7.30;;;5.30;;
19861;SDS011;10093;48.148;8.542;2022-11-12T08:48:25;11.23;;;7.07;;
19861;SDS011;10093;48.148;8.542;2022-11-12T08:50:51;6.03;;;5.22;;
19861;SDS011;10093;48.148;8.542;2022-11-12T08:53:17;9.48;;;5.80;;
19861;SDS011;10093;48.148;8.542;2022-11-12T08:55:42;7.45;;;5.85;;
19861;SDS011;10093;48.148;8.542;2022-11-12T08:58:08;6.65;;;5.13;;
19861;SDS011;10093;48.148;8.542;2022-11-12T09:00:41;6.32;;;4.63;;
19861;SDS011;10093;48.148;8.542;2022-11-12T09:03:12;5.60;;;4.65;;
19861;SDS011;10093;48.148;8.542;2022-11-12T09:05:40;5.70;;;4.40;;
19861;SDS011;10093;48.148;8.542;2022-11-12T09:08:07;7.32;;;5.65;;
19861;SDS011;10093;48.148;8.542;2022-11-12T09:10:34;9.57;;;7.70;;
19861;SDS011;10093;48.148;8.542;2022-11-12T09:13:00;9.05;;;6.00;;
19861;SDS011;10093;48.148;8.542;2022-11-12T09:15:27;6.28;;;4.95;;
19861;SDS011;10093;48.148;8.542;2022-11-12T09:17:56;9.57;;;7.13;;
19861;SDS011;10093;48.148;8.542;2022-11-12T09:20:24;7.78;;;5.72;;
19861;SDS011;10093;48.148;8.542;2022-11-12T09:22:50;8.30;;;5.60;;
19861;SDS011;10093;48.148;8.542;2022-11-12T09:25:16;13.48;;;10.75;;
19861;SDS011;10093;48.148;8.542;2022-11-12T09:27:42;30.48;;;26.50;;
19861;SDS011;10093;48.148;8.542;2022-11-12T09:30:08;8.93;;;6.38;;
19861;SDS011;10093;48.148;8.542;2022-11-12T09:32:34;9.30;;;6.72;;
19861;SDS011;10093;48.148;8.542;2022-11-12T09:34:59;5.65;;;4.53;;
19861;SDS011;10093;48.148;8.542;2022-11-12T09:37:25;5.20;;;4.47;;
19861;SDS011;10093;48.148;8.542;2022-11-12T09:39:50;9.85;;;8.00;;
19861;SDS011;10093;48.148;8.542;2022-11-12T09:42:16;25.77;;;19.02;;
19861;SDS011;10093;48.148;8.542;2022-11-12T09:44:45;7.38;;;5.80;;
19861;SDS011;10093;48.148;8.542;2022-11-12T09:47:31;50.78;;;44.25;;
19861;SDS011;10093;48.148;8.542;2022-11-12T09:50:11;6.70;;;4.95;;
19861;SDS011;10093;48.148;8.542;2022-11-12T09:52:39;27.40;;;18.88;;
19861;SDS011;10093;48.148;8.542;2022-11-12T09:57:36;8.88;;;6.75;;
19861;SDS011;10093;48.148;8.542;2022-11-12T10:00:02;9.88;;;6.53;;
19861;SDS011;10093;48.148;8.542;2022-11-12T10:02:39;5.80;;;4.72;;
19861;SDS011;10093;48.148;8.542;2022-11-12T10:05:33;22.13;;;15.57;;
19861;SDS011;10093;48.148;8.542;2022-11-12T10:08:23;9.88;;;7.80;;
19861;SDS011;10093;48.148;8.542;2022-11-12T10:17:47;8.77;;;7.07;;
19861;SDS011;10093;48.148;8.542;2022-11-12T10:20:24;6.13;;;4.95;;
19861;SDS011;10093;48.148;8.542;2022-11-12T10:23:14;12.60;;;9.68;;
19861;SDS011;10093;48.148;8.542;2022-11-12T10:25:46;10.95;;;6.47;;
19861;SDS011;10093;48.148;8.542;2022-11-12T10:28:27;5.30;;;4.43;;
19861;SDS011;10093;48.148;8.542;2022-11-12T10:31:15;5.28;;;4.50;;
19861;SDS011;10093;48.148;8.542;2022-11-12T10:33:42;7.60;;;5.13;;
19861;SDS011;10093;48.148;8.542;2022-11-12T10:36:30;5.20;;;4.40;;
19861;SDS011;10093;48.148;8.542;2022-11-12T10:38:55;10.98;;;8.80;;
19861;SDS011;10093;48.148;8.542;2022-11-12T10:41:22;6.63;;;4.82;;
19861;SDS011;10093;48.148;8.542;2022-11-12T10:46:37;7.40;;;5.53;;
19861;SDS011;10093;48.148;8.542;2022-11-12T10:51:40;9.43;;;7.10;;
19861;SDS011;10093;48.148;8.542;2022-11-12T10:54:19;5.57;;;4.55;;
19861;SDS011;10093;48.148;8.542;2022-11-12T10:56:52;6.90;;;5.80;;
19861;SDS011;10093;48.148;8.542;2022-11-12T11:01:53;6.65;;;5.95;;
19861;SDS011;10093;48.148;8.542;2022-11-12T11:04:27;7.07;;;5.97;;
19861;SDS011;10093;48.148;8.542;2022-11-12T11:07:22;7.10;;;5.53;;
19861;SDS011;10093;48.148;8.542;2022-11-12T11:09:52;6.07;;;5.47;;
19861;SDS011;10093;48.148;8.542;2022-11-12T11:17:47;7.88;;;5.60;;
19861;SDS011;10093;48.148;8.542;2022-11-12T11:20:20;7.25;;;5.63;;
19861;SDS011;10093;48.148;8.542;2022-11-12T11:23:02;90.88;;;48.47;;
19861;SDS011;10093;48.148;8.542;2022-11-12T11:25:40;15.30;;;13.30;;
19861;SDS011;10093;48.148;8.542;2022-11-12T11:28:19;7.50;;;5.78;;
19861;SDS011;10093;48.148;8.542;2022-11-12T11:30:56;8.68;;;7.50;;
19861;SDS011;10093;48.148;8.542;2022-11-12T11:36:53;6.68;;;5.72;;
19861;SDS011;10093;48.148;8.542;2022-11-12T11:39:20;7.35;;;5.97;;
19861;SDS011;10093;48.148;8.542;2022-11-12T11:44:50;8.68;;;6.32;;
19861;SDS011;10093;48.148;8.542;2022-11-12T11:47:28;8.73;;;6.50;;
19861;SDS011;10093;48.148;8.542;2022-11-12T11:50:49;8.57;;;6.07;;
19861;SDS011;10093;48.148;8.542;2022-11-12T11:53:11;12.10;;;6.40;;
19861;SDS011;10093;48.148;8.542;2022-11-12T11:55:56;7.85;;;5.95;;
19861;SDS011;10093;48.148;8.542;2022-11-12T12:02:25;7.70;;;6.25;;
19861;SDS011;10093;48.148;8.542;2022-11-12T12:09:53;8.32;;;6.53;;
19861;SDS011;10093;48.148;8.542;2022-11-12T12:18:51;7.03;;;5.88;;
19861;SDS011;10093;48.148;8.542;2022-11-12T12:21:28;8.63;;;6.20;;
19861;SDS011;10093;48.148;8.542;2022-11-12T12:23:59;7.57;;;6.53;;
19861;SDS011;10093;48.148;8.542;2022-11-12T12:29:18;10.30;;;7.85;;
19861;SDS011;10093;48.148;8.542;2022-11-12T12:32:09;10.32;;;7.18;;
19861;SDS011;10093;48.148;8.542;2022-11-12T12:35:09;10.57;;;8.48;;
19861;SDS011;10093;48.148;8.542;2022-11-12T12:40:18;16.40;;;12.75;;
19861;SDS011;10093;48.148;8.542;2022-11-12T12:42:49;9.02;;;7.00;;
19861;SDS011;10093;48.148;8.542;2022-11-12T12:45:40;10.77;;;7.30;;
19861;SDS011;10093;48.148;8.542;2022-11-12T12:48:16;9.30;;;7.35;;
19861;SDS011;10093;48.148;8.542;2022-11-12T12:50:49;9.45;;;7.43;;
19861;SDS011;10093;48.148;8.542;2022-11-12T12:55:51;10.17;;;7.67;;
19861;SDS011;10093;48.148;8.542;2022-11-12T13:00:51;13.07;;;9.23;;
19861;SDS011;10093;48.148;8.542;2022-11-12T13:08:58;16.92;;;13.82;;
19861;SDS011;10093;48.148;8.542;2022-11-12T13:42:55;11.70;;;7.90;;
19861;SDS011;10093;48.148;8.542;2022-11-12T13:45:27;10.93;;;8.00;;
19861;SDS011;10093;48.148;8.542;2022-11-12T13:47:52;12.77;;;8.23;;
19861;SDS011;10093;48.148;8.542;2022-11-12T13:50:19;10.50;;;7.47;;
19861;SDS011;10093;48.148;8.542;2022-11-12T13:52:47;12.02;;;8.38;;
19861;SDS011;10093;48.148;8.542;2022-11-12T13:55:14;11.30;;;7.90;;
19861;SDS011;10093;48.148;8.542;2022-11-12T13:57:47;11.77;;;8.63;;
19861;SDS011;10093;48.148;8.542;2022-11-12T14:02:43;14.75;;;10.32;;
19861;SDS011;10093;48.148;8.542;2022-11-12T14:05:13;14.48;;;10.65;;
19861;SDS011;10093;48.148;8.542;2022-11-12T14:21:30;12.10;;;8.50;;
19861;SDS011;10093;48.148;8.542;2022-11-12T14:23:56;13.13;;;8.68;;
19861;SDS011;10093;48.148;8.542;2022-11-12T14:26:35;10.70;;;8.25;;
19861;SDS011;10093;48.148;8.542;2022-11-12T14:29:06;11.93;;;8.43;;
19861;SDS011;10093;48.148;8.542;2022-11-12T14:31:31;13.90;;;8.82;;
19861;SDS011;10093;48.148;8.542;2022-11-12T14:36:56;13.85;;;9.13;;
19861;SDS011;10093;48.148;8.542;2022-11-12T14:39:23;11.90;;;8.75;;
19861;SDS011;10093;48.148;8.542;2022-11-12T14:41:50;12.77;;;8.85;;
19861;SDS011;10093;48.148;8.542;2022-11-12T14:44:18;55.65;;;44.28;;
19861;SDS011;10093;48.148;8.542;2022-11-12T14:46:47;27.48;;;19.92;;
19861;SDS011;10093;48.148;8.542;2022-11-12T14:54:43;13.93;;;10.13;;
19861;SDS011;10093;48.148;8.542;2022-11-12T14:57:18;14.40;;;10.43;;
19861;SDS011;10093;48.148;8.542;2022-11-12T14:59:46;12.93;;;9.45;;
19861;SDS011;10093;48.148;8.542;2022-11-12T15:02:16;48.97;;;29.73;;
19861;SDS011;10093;48.148;8.542;2022-11-12T15:04:57;38.95;;;25.67;;
19861;SDS011;10093;48.148;8.542;2022-11-12T15:07:32;18.15;;;12.23;;
19861;SDS011;10093;48.148;8.542;2022-11-12T15:09:59;12.82;;;9.43;;
19861;SDS011;10093;48.148;8.542;2022-11-12T15:12:26;12.82;;;9.23;;
19861;SDS011;10093;48.148;8.542;2022-11-12T15:15:08;12.55;;;8.88;;
19861;SDS011;10093;48.148;8.542;2022-11-12T15:17:41;12.90;;;9.88;;
19861;SDS011;10093;48.148;8.542;2022-11-12T15:20:14;16.08;;;11.13;;
19861;SDS011;10093;48.148;8.542;2022-11-12T15:22:48;16.60;;;11.07;;
19861;SDS011;10093;48.148;8.542;2022-11-12T15:25:18;14.40;;;9.43;;
19861;SDS011;10093;48.148;8.542;2022-11-12T15:27:46;15.43;;;10.32;;
19861;SDS011;10093;48.148;8.542;2022-11-12T15:32:40;15.25;;;10.43;;
19861;SDS011;10093;48.148;8.542;2022-11-12T15:37:50;14.82;;;10.15;;
19861;SDS011;10093;48.148;8.542;2022-11-12T15:40:17;27.77;;;17.35;;
19861;SDS011;10093;48.148;8.542;2022-11-12T15:42:44;34.45;;;19.63;;
19861;SDS011;10093;48.148;8.542;2022-11-12T15:47:45;25.67;;;15.52;;
19861;SDS011;10093;48.148;8.542;2022-11-12T15:50:18;22.80;;;13.95;;
19861;SDS011;10093;48.148;8.542;2022-11-12T15:52:46;43.13;;;21.27;;
19861;SDS011;10093;48.148;8.542;2022-11-12T15:55:12;52.53;;;25.67;;
19861;SDS011;10093;48.148;8.542;2022-11-12T15:57:48;38.30;;;21.00;;
19861;SDS011;10093;48.148;8.542;2022-11-12T16:00:17;57.80;;;30.23;;
19861;SDS011;10093;48.148;8.542;2022-11-12T16:02:45;57.83;;;29.05;;
19861;SDS011;10093;48.148;8.542;2022-11-12T16:05:17;100.55;;;50.72;;
19861;SDS011;10093;48.148;8.542;2022-11-12T16:07:42;78.30;;;40.47;;
19861;SDS011;10093;48.148;8.542;2022-11-12T16:10:16;31.92;;;19.20;;
19861;SDS011;10093;48.148;8.542;2022-11-12T16:12:42;23.80;;;14.10;;
19861;SDS011;10093;48.148;8.542;2022-11-12T16:15:19;28.10;;;16.90;;
19861;SDS011;10093;48.148;8.542;2022-11-12T16:17:49;36.33;;;20.45;;
19861;SDS011;10093;48.148;8.542;2022-11-12T16:22:46;32.95;;;19.35;;
19861;SDS011;10093;48.148;8.542;2022-11-12T16:25:13;42.33;;;24.00;;
19861;SDS011;10093;48.148;8.542;2022-11-12T16:27:39;36.38;;;20.38;;
19861;SDS011;10093;48.148;8.542;2022-11-12T16:30:05;26.60;;;15.98;;
19861;SDS011;10093;48.148;8.542;2022-11-12T16:32:52;25.35;;;14.30;;
19861;SDS011;10093;48.148;8.542;2022-11-12T16:35:17;26.10;;;16.48;;
19861;SDS011;10093;48.148;8.542;2022-11-12T16:37:44;30.13;;;16.85;;
19861;SDS011;10093;48.148;8.542;2022-11-12T16:40:17;31.52;;;17.67;;
19861;SDS011;10093;48.148;8.542;2022-11-12T16:42:45;35.17;;;21.15;;
19861;SDS011;10093;48.148;8.542;2022-11-12T16:45:11;28.75;;;19.08;;
19861;SDS011;10093;48.148;8.542;2022-11-12T16:47:44;61.45;;;40.78;;
19861;SDS011;10093;48.148;8.542;2022-11-12T16:50:13;40.28;;;27.60;;
19861;SDS011;10093;48.148;8.542;2022-11-12T16:52:41;36.13;;;24.33;;
19861;SDS011;10093;48.148;8.542;2022-11-12T16:55:07;44.30;;;26.73;;
19861;SDS011;10093;48.148;8.542;2022-11-12T16:57:33;38.97;;;23.13;;
19861;SDS011;10093;48.148;8.542;2022-11-12T16:59:59;29.08;;;17.13;;
19861;SDS011;10093;48.148;8.542;2022-11-12T17:02:25;38.08;;;20.73;;
19861;SDS011;10093;48.148;8.542;2022-11-12T17:04:51;35.60;;;20.13;;
19861;SDS011;10093;48.148;8.542;2022-11-12T17:07:16;34.22;;;18.35;;